sensor_id;sensor_type;location;lat;lon;timestamp;P1;durP1;ratioP1;P2;durP2;ratioP2
32535;SDS011;18974;50.838;4.636;2023-04-07T00:00:55;19.30;;;7.45;;
32535;SDS011;18974;50.838;4.636;2023-04-07T00:03:21;28.33;;;7.22;;
32535;SDS011;18974;50.838;4.636;2023-04-07T00:05:47;17.92;;;7.00;;
32535;SDS011;18974;50.838;4.636;2023-04-07T00:08:13;23.17;;;7.50;;
32535;SDS011;18974;50.838;4.636;2023-04-07T00:10:39;16.52;;;6.63;;
32535;SDS011;18974;50.838;4.636;2023-04-07T00:13:05;16.83;;;7.68;;
32535;SDS011;18974;50.838;4.636;2023-04-07T00:15:31;18.20;;;7.53;;
32535;SDS011;18974;50.838;4.636;2023-04-07T00:17:57;22.85;;;7.78;;
32535;SDS011;18974;50.838;4.636;2023-04-07T00:20:22;20.45;;;7.88;;
32535;SDS011;18974;50.838;4.636;2023-04-07T00:22:48;20.10;;;7.35;;
32535;SDS011;18974;50.838;4.636;2023-04-07T00:25:14;15.32;;;7.72;;
32535;SDS011;18974;50.838;4.636;2023-04-07T00:27:39;19.90;;;8.48;;
32535;SDS011;18974;50.838;4.636;2023-04-07T00:30:05;22.33;;;7.72;;
32535;SDS011;18974;50.838;4.636;2023-04-07T00:32:31;22.48;;;8.35;;
32535;SDS011;18974;50.838;4.636;2023-04-07T00:34:57;22.92;;;8.95;;
32535;SDS011;18974;50.838;4.636;2023-04-07T00:37:23;25.85;;;9.15;;
32535;SDS011;18974;50.838;4.636;2023-04-07T00:39:49;26.55;;;9.77;;
32535;SDS011;18974;50.838;4.636;2023-04-07T00:42:16;24.00;;;9.35;;
32535;SDS011;18974;50.838;4.636;2023-04-07T00:44:42;18.83;;;9.82;;
32535;SDS011;18974;50.838;4.636;2023-04-07T00:47:07;20.98;;;9.82;;
32535;SDS011;18974;50.838;4.636;2023-04-07T00:49:33;16.92;;;9.13;;
32535;SDS011;18974;50.838;4.636;2023-04-07T00:52:00;20.23;;;9.95;;
32535;SDS011;18974;50.838;4.636;2023-04-07T00:54:26;24.13;;;10.95;;
32535;SDS011;18974;50.838;4.636;2023-04-07T00:56:54;18.13;;;10.15;;
32535;SDS011;18974;50.838;4.636;2023-04-07T00:59:21;41.92;;;12.73;;
32535;SDS011;18974;50.838;4.636;2023-04-07T01:01:50;24.50;;;10.65;;
32535;SDS011;18974;50.838;4.636;2023-04-07T01:04:29;30.67;;;11.45;;
32535;SDS011;18974;50.838;4.636;2023-04-07T01:09:36;27.75;;;12.80;;
32535;SDS011;18974;50.838;4.636;2023-04-07T01:12:09;32.97;;;13.20;;
32535;SDS011;18974;50.838;4.636;2023-04-07T01:14:46;28.58;;;13.45;;
32535;SDS011;18974;50.838;4.636;2023-04-07T01:17:20;30.80;;;14.05;;
32535;SDS011;18974;50.838;4.636;2023-04-07T01:19:55;35.42;;;14.68;;
32535;SDS011;18974;50.838;4.636;2023-04-07T01:22:26;40.75;;;15.65;;
32535;SDS011;18974;50.838;4.636;2023-04-07T01:27:48;33.78;;;16.38;;
32535;SDS011;18974;50.838;4.636;2023-04-07T01:30:30;48.15;;;19.42;;
32535;SDS011;18974;50.838;4.636;2023-04-07T01:32:57;46.55;;;18.80;;
32535;SDS011;18974;50.838;4.636;2023-04-07T01:35:24;33.88;;;18.15;;
32535;SDS011;18974;50.838;4.636;2023-04-07T01:37:53;28.42;;;16.80;;
32535;SDS011;18974;50.838;4.636;2023-04-07T01:40:20;42.90;;;18.10;;
32535;SDS011;18974;50.838;4.636;2023-04-07T01:42:46;33.60;;;17.58;;
32535;SDS011;18974;50.838;4.636;2023-04-07T01:45:14;46.40;;;17.67;;
32535;SDS011;18974;50.838;4.636;2023-04-07T01:47:41;37.28;;;19.30;;
32535;SDS011;18974;50.838;4.636;2023-04-07T01:50:08;44.40;;;19.33;;
32535;SDS011;18974;50.838;4.636;2023-04-07T01:52:35;50.38;;;20.15;;
32535;SDS011;18974;50.838;4.636;2023-04-07T01:55:03;41.33;;;17.00;;
32535;SDS011;18974;50.838;4.636;2023-04-07T01:57:29;43.13;;;18.92;;
32535;SDS011;18974;50.838;4.636;2023-04-07T01:59:55;46.17;;;19.05;;
32535;SDS011;18974;50.838;4.636;2023-04-07T02:02:20;44.42;;;18.70;;
32535;SDS011;18974;50.838;4.636;2023-04-07T02:07:45;38.58;;;18.05;;
32535;SDS011;18974;50.838;4.636;2023-04-07T02:10:24;42.30;;;17.33;;
32535;SDS011;18974;50.838;4.636;2023-04-07T02:12:52;46.80;;;18.10;;
32535;SDS011;18974;50.838;4.636;2023-04-07T02:15:19;44.05;;;18.42;;
32535;SDS011;18974;50.838;4.636;2023-04-07T02:17:47;42.88;;;18.75;;
32535;SDS011;18974;50.838;4.636;2023-04-07T02:20:16;43.33;;;17.92;;
32535;SDS011;18974;50.838;4.636;2023-04-07T02:22:43;41.92;;;17.90;;
32535;SDS011;18974;50.838;4.636;2023-04-07T02:25:26;43.33;;;19.85;;
32535;SDS011;18974;50.838;4.636;2023-04-07T02:27:54;36.03;;;17.27;;
32535;SDS011;18974;50.838;4.636;2023-04-07T02:30:21;47.13;;;19.38;;
32535;SDS011;18974;50.838;4.636;2023-04-07T02:32:46;43.95;;;18.92;;
32535;SDS011;18974;50.838;4.636;2023-04-07T02:35:12;45.42;;;18.60;;
32535;SDS011;18974;50.838;4.636;2023-04-07T02:37:38;47.33;;;18.45;;
32535;SDS011;18974;50.838;4.636;2023-04-07T02:40:04;47.80;;;17.50;;
32535;SDS011;18974;50.838;4.636;2023-04-07T02:42:31;46.00;;;18.38;;
32535;SDS011;18974;50.838;4.636;2023-04-07T02:44:56;45.55;;;17.98;;
32535;SDS011;18974;50.838;4.636;2023-04-07T02:47:22;46.70;;;18.52;;
32535;SDS011;18974;50.838;4.636;2023-04-07T02:49:48;42.67;;;17.02;;
32535;SDS011;18974;50.838;4.636;2023-04-07T02:52:14;37.50;;;16.77;;
32535;SDS011;18974;50.838;4.636;2023-04-07T02:54:40;43.85;;;18.05;;
32535;SDS011;18974;50.838;4.636;2023-04-07T02:57:05;44.08;;;18.25;;
32535;SDS011;18974;50.838;4.636;2023-04-07T02:59:31;46.53;;;18.52;;
32535;SDS011;18974;50.838;4.636;2023-04-07T03:01:57;44.47;;;18.48;;
32535;SDS011;18974;50.838;4.636;2023-04-07T03:04:22;42.10;;;19.23;;
32535;SDS011;18974;50.838;4.636;2023-04-07T03:06:48;45.05;;;19.38;;
32535;SDS011;18974;50.838;4.636;2023-04-07T03:09:13;57.53;;;21.08;;
32535;SDS011;18974;50.838;4.636;2023-04-07T03:11:39;49.90;;;21.95;;
32535;SDS011;18974;50.838;4.636;2023-04-07T03:14:07;48.25;;;20.70;;
32535;SDS011;18974;50.838;4.636;2023-04-07T03:16:33;51.42;;;22.33;;
32535;SDS011;18974;50.838;4.636;2023-04-07T03:18:59;57.67;;;23.08;;
32535;SDS011;18974;50.838;4.636;2023-04-07T03:21:25;41.95;;;20.00;;
32535;SDS011;18974;50.838;4.636;2023-04-07T03:23:52;52.50;;;22.33;;
32535;SDS011;18974;50.838;4.636;2023-04-07T03:26:18;56.35;;;23.02;;
32535;SDS011;18974;50.838;4.636;2023-04-07T03:28:44;52.03;;;22.25;;
32535;SDS011;18974;50.838;4.636;2023-04-07T03:31:10;65.22;;;24.92;;
32535;SDS011;18974;50.838;4.636;2023-04-07T03:33:35;56.80;;;24.80;;
32535;SDS011;18974;50.838;4.636;2023-04-07T03:36:01;55.95;;;23.23;;
32535;SDS011;18974;50.838;4.636;2023-04-07T03:38:26;57.75;;;23.70;;
32535;SDS011;18974;50.838;4.636;2023-04-07T03:40:53;51.72;;;22.85;;
32535;SDS011;18974;50.838;4.636;2023-04-07T03:43:18;67.03;;;23.95;;
32535;SDS011;18974;50.838;4.636;2023-04-07T03:45:44;51.78;;;23.85;;
32535;SDS011;18974;50.838;4.636;2023-04-07T03:48:11;63.75;;;25.17;;
32535;SDS011;18974;50.838;4.636;2023-04-07T03:50:37;54.58;;;24.48;;
32535;SDS011;18974;50.838;4.636;2023-04-07T03:53:03;51.22;;;24.33;;
32535;SDS011;18974;50.838;4.636;2023-04-07T03:55:29;54.97;;;24.45;;
32535;SDS011;18974;50.838;4.636;2023-04-07T03:57:55;51.53;;;23.98;;
32535;SDS011;18974;50.838;4.636;2023-04-07T04:00:21;52.38;;;23.70;;
32535;SDS011;18974;50.838;4.636;2023-04-07T04:02:47;58.33;;;25.10;;
32535;SDS011;18974;50.838;4.636;2023-04-07T04:05:13;55.33;;;25.17;;
32535;SDS011;18974;50.838;4.636;2023-04-07T04:07:38;49.75;;;24.13;;
32535;SDS011;18974;50.838;4.636;2023-04-07T04:10:04;61.30;;;25.90;;
32535;SDS011;18974;50.838;4.636;2023-04-07T04:12:30;55.30;;;25.52;;
32535;SDS011;18974;50.838;4.636;2023-04-07T04:14:57;55.58;;;24.30;;
32535;SDS011;18974;50.838;4.636;2023-04-07T04:17:23;54.42;;;24.80;;
32535;SDS011;18974;50.838;4.636;2023-04-07T04:19:49;60.55;;;24.55;;
32535;SDS011;18974;50.838;4.636;2023-04-07T04:22:15;57.92;;;24.08;;
32535;SDS011;18974;50.838;4.636;2023-04-07T04:24:41;63.65;;;26.45;;
32535;SDS011;18974;50.838;4.636;2023-04-07T04:27:07;52.13;;;24.65;;
32535;SDS011;18974;50.838;4.636;2023-04-07T04:29:32;53.97;;;22.48;;
32535;SDS011;18974;50.838;4.636;2023-04-07T04:31:58;60.72;;;26.67;;
32535;SDS011;18974;50.838;4.636;2023-04-07T04:34:24;55.97;;;24.63;;
32535;SDS011;18974;50.838;4.636;2023-04-07T04:36:50;53.92;;;24.63;;
32535;SDS011;18974;50.838;4.636;2023-04-07T04:39:15;56.20;;;25.30;;
32535;SDS011;18974;50.838;4.636;2023-04-07T04:41:41;54.05;;;24.38;;
32535;SDS011;18974;50.838;4.636;2023-04-07T04:44:06;60.88;;;24.33;;
32535;SDS011;18974;50.838;4.636;2023-04-07T04:46:32;51.60;;;24.30;;
32535;SDS011;18974;50.838;4.636;2023-04-07T04:48:58;58.78;;;24.65;;
32535;SDS011;18974;50.838;4.636;2023-04-07T04:51:23;55.85;;;25.45;;
32535;SDS011;18974;50.838;4.636;2023-04-07T04:53:50;58.92;;;24.95;;
32535;SDS011;18974;50.838;4.636;2023-04-07T04:56:15;57.20;;;24.77;;
32535;SDS011;18974;50.838;4.636;2023-04-07T04:58:41;51.78;;;23.70;;
32535;SDS011;18974;50.838;4.636;2023-04-07T05:01:10;55.83;;;24.45;;
32535;SDS011;18974;50.838;4.636;2023-04-07T05:03:36;52.70;;;24.55;;
32535;SDS011;18974;50.838;4.636;2023-04-07T05:06:02;51.40;;;24.33;;
32535;SDS011;18974;50.838;4.636;2023-04-07T05:08:28;55.42;;;23.83;;
32535;SDS011;18974;50.838;4.636;2023-04-07T05:10:53;57.85;;;25.27;;
32535;SDS011;18974;50.838;4.636;2023-04-07T05:13:19;60.15;;;26.02;;
32535;SDS011;18974;50.838;4.636;2023-04-07T05:15:45;60.63;;;24.55;;
32535;SDS011;18974;50.838;4.636;2023-04-07T05:18:11;48.28;;;22.77;;
32535;SDS011;18974;50.838;4.636;2023-04-07T05:20:37;56.05;;;22.63;;
32535;SDS011;18974;50.838;4.636;2023-04-07T05:23:02;50.38;;;22.77;;
32535;SDS011;18974;50.838;4.636;2023-04-07T05:25:28;49.28;;;22.17;;
32535;SDS011;18974;50.838;4.636;2023-04-07T05:27:54;55.90;;;24.27;;
32535;SDS011;18974;50.838;4.636;2023-04-07T05:30:20;61.38;;;23.38;;
32535;SDS011;18974;50.838;4.636;2023-04-07T05:32:45;59.58;;;24.73;;
32535;SDS011;18974;50.838;4.636;2023-04-07T05:35:11;57.63;;;24.17;;
32535;SDS011;18974;50.838;4.636;2023-04-07T05:37:37;53.15;;;24.20;;
32535;SDS011;18974;50.838;4.636;2023-04-07T05:40:03;55.50;;;24.35;;
32535;SDS011;18974;50.838;4.636;2023-04-07T05:42:29;55.85;;;24.13;;
32535;SDS011;18974;50.838;4.636;2023-04-07T05:44:55;63.85;;;23.88;;
32535;SDS011;18974;50.838;4.636;2023-04-07T05:47:20;60.65;;;23.42;;
32535;SDS011;18974;50.838;4.636;2023-04-07T05:49:46;58.25;;;24.20;;
32535;SDS011;18974;50.838;4.636;2023-04-07T05:52:12;53.90;;;22.65;;
32535;SDS011;18974;50.838;4.636;2023-04-07T05:54:38;60.00;;;23.52;;
32535;SDS011;18974;50.838;4.636;2023-04-07T05:57:06;57.95;;;24.45;;
32535;SDS011;18974;50.838;4.636;2023-04-07T05:59:33;57.13;;;22.45;;
32535;SDS011;18974;50.838;4.636;2023-04-07T06:01:59;65.68;;;25.42;;
32535;SDS011;18974;50.838;4.636;2023-04-07T06:04:25;63.35;;;25.20;;
32535;SDS011;18974;50.838;4.636;2023-04-07T06:06:51;71.25;;;24.85;;
32535;SDS011;18974;50.838;4.636;2023-04-07T06:09:19;64.85;;;25.75;;
32535;SDS011;18974;50.838;4.636;2023-04-07T06:11:45;60.72;;;24.95;;
32535;SDS011;18974;50.838;4.636;2023-04-07T06:14:11;61.70;;;23.88;;
32535;SDS011;18974;50.838;4.636;2023-04-07T06:16:37;63.78;;;23.90;;
32535;SDS011;18974;50.838;4.636;2023-04-07T06:19:02;56.17;;;23.55;;
32535;SDS011;18974;50.838;4.636;2023-04-07T06:21:28;62.85;;;25.15;;
32535;SDS011;18974;50.838;4.636;2023-04-07T06:23:55;61.15;;;22.02;;
32535;SDS011;18974;50.838;4.636;2023-04-07T06:26:21;51.05;;;20.98;;
32535;SDS011;18974;50.838;4.636;2023-04-07T06:28:47;43.88;;;20.33;;
32535;SDS011;18974;50.838;4.636;2023-04-07T06:31:13;43.15;;;19.67;;
32535;SDS011;18974;50.838;4.636;2023-04-07T06:33:39;56.67;;;21.85;;
32535;SDS011;18974;50.838;4.636;2023-04-07T06:36:05;45.13;;;20.35;;
32535;SDS011;18974;50.838;4.636;2023-04-07T06:38:31;40.05;;;19.25;;
32535;SDS011;18974;50.838;4.636;2023-04-07T06:40:57;39.53;;;18.45;;
32535;SDS011;18974;50.838;4.636;2023-04-07T06:43:22;44.00;;;20.20;;
32535;SDS011;18974;50.838;4.636;2023-04-07T06:45:48;43.90;;;19.15;;
32535;SDS011;18974;50.838;4.636;2023-04-07T06:48:13;47.20;;;19.95;;
32535;SDS011;18974;50.838;4.636;2023-04-07T06:50:39;44.67;;;19.35;;
32535;SDS011;18974;50.838;4.636;2023-04-07T06:53:05;44.72;;;18.58;;
32535;SDS011;18974;50.838;4.636;2023-04-07T06:55:30;42.30;;;18.20;;
32535;SDS011;18974;50.838;4.636;2023-04-07T06:57:56;37.00;;;17.25;;
32535;SDS011;18974;50.838;4.636;2023-04-07T07:00:22;41.10;;;18.55;;
32535;SDS011;18974;50.838;4.636;2023-04-07T07:02:48;46.50;;;19.08;;
32535;SDS011;18974;50.838;4.636;2023-04-07T07:05:14;40.40;;;17.40;;
32535;SDS011;18974;50.838;4.636;2023-04-07T07:07:40;38.13;;;17.33;;
32535;SDS011;18974;50.838;4.636;2023-04-07T07:10:07;39.40;;;18.10;;
32535;SDS011;18974;50.838;4.636;2023-04-07T07:12:34;37.10;;;17.45;;
32535;SDS011;18974;50.838;4.636;2023-04-07T07:15:00;40.50;;;16.92;;
32535;SDS011;18974;50.838;4.636;2023-04-07T07:17:26;38.05;;;17.90;;
32535;SDS011;18974;50.838;4.636;2023-04-07T07:19:51;41.88;;;18.42;;
32535;SDS011;18974;50.838;4.636;2023-04-07T07:22:17;30.60;;;16.35;;
32535;SDS011;18974;50.838;4.636;2023-04-07T07:24:43;37.67;;;18.98;;
32535;SDS011;18974;50.838;4.636;2023-04-07T07:27:08;39.63;;;18.83;;
32535;SDS011;18974;50.838;4.636;2023-04-07T07:29:34;33.50;;;17.85;;
32535;SDS011;18974;50.838;4.636;2023-04-07T07:32:00;34.70;;;17.33;;
32535;SDS011;18974;50.838;4.636;2023-04-07T07:34:25;33.58;;;17.58;;
32535;SDS011;18974;50.838;4.636;2023-04-07T07:36:51;39.50;;;18.02;;
32535;SDS011;18974;50.838;4.636;2023-04-07T07:39:16;32.88;;;17.38;;
32535;SDS011;18974;50.838;4.636;2023-04-07T07:41:42;29.25;;;16.17;;
32535;SDS011;18974;50.838;4.636;2023-04-07T07:44:08;29.05;;;16.25;;
32535;SDS011;18974;50.838;4.636;2023-04-07T07:46:33;30.88;;;14.55;;
32535;SDS011;18974;50.838;4.636;2023-04-07T07:48:59;25.77;;;13.98;;
32535;SDS011;18974;50.838;4.636;2023-04-07T07:51:24;26.63;;;13.85;;
32535;SDS011;18974;50.838;4.636;2023-04-07T07:53:51;25.40;;;15.18;;
32535;SDS011;18974;50.838;4.636;2023-04-07T07:56:17;26.38;;;13.20;;
32535;SDS011;18974;50.838;4.636;2023-04-07T07:58:43;25.73;;;13.75;;
32535;SDS011;18974;50.838;4.636;2023-04-07T08:01:08;23.50;;;13.52;;
32535;SDS011;18974;50.838;4.636;2023-04-07T08:03:34;19.83;;;11.40;;
32535;SDS011;18974;50.838;4.636;2023-04-07T08:06:00;19.85;;;11.05;;
32535;SDS011;18974;50.838;4.636;2023-04-07T08:08:25;21.55;;;12.70;;
32535;SDS011;18974;50.838;4.636;2023-04-07T08:10:51;18.05;;;11.20;;
32535;SDS011;18974;50.838;4.636;2023-04-07T08:13:17;21.05;;;10.57;;
32535;SDS011;18974;50.838;4.636;2023-04-07T08:15:42;13.18;;;9.20;;
32535;SDS011;18974;50.838;4.636;2023-04-07T08:18:08;15.20;;;9.45;;
32535;SDS011;18974;50.838;4.636;2023-04-07T08:20:33;16.67;;;9.20;;
32535;SDS011;18974;50.838;4.636;2023-04-07T08:23:00;12.85;;;8.45;;
32535;SDS011;18974;50.838;4.636;2023-04-07T08:25:26;18.23;;;10.27;;
32535;SDS011;18974;50.838;4.636;2023-04-07T08:27:52;16.45;;;9.35;;
32535;SDS011;18974;50.838;4.636;2023-04-07T08:30:18;13.25;;;7.97;;
32535;SDS011;18974;50.838;4.636;2023-04-07T08:32:45;14.75;;;7.45;;
32535;SDS011;18974;50.838;4.636;2023-04-07T08:35:11;12.43;;;7.05;;
32535;SDS011;18974;50.838;4.636;2023-04-07T08:37:37;16.35;;;8.32;;
32535;SDS011;18974;50.838;4.636;2023-04-07T08:40:04;18.42;;;8.55;;
32535;SDS011;18974;50.838;4.636;2023-04-07T08:42:31;19.27;;;8.88;;
32535;SDS011;18974;50.838;4.636;2023-04-07T08:45:02;14.52;;;9.20;;
32535;SDS011;18974;50.838;4.636;2023-04-07T08:47:32;18.85;;;10.40;;
32535;SDS011;18974;50.838;4.636;2023-04-07T08:50:00;17.42;;;10.93;;
32535;SDS011;18974;50.838;4.636;2023-04-07T08:52:33;17.90;;;9.90;;
32535;SDS011;18974;50.838;4.636;2023-04-07T08:55:10;15.60;;;7.97;;
32535;SDS011;18974;50.838;4.636;2023-04-07T08:57:36;10.10;;;7.03;;
32535;SDS011;18974;50.838;4.636;2023-04-07T09:00:03;11.10;;;6.70;;
32535;SDS011;18974;50.838;4.636;2023-04-07T09:02:33;10.50;;;6.45;;
32535;SDS011;18974;50.838;4.636;2023-04-07T09:05:02;10.70;;;6.07;;
32535;SDS011;18974;50.838;4.636;2023-04-07T09:07:30;9.45;;;5.38;;
32535;SDS011;18974;50.838;4.636;2023-04-07T09:09:57;14.38;;;5.57;;
32535;SDS011;18974;50.838;4.636;2023-04-07T09:12:23;14.18;;;4.95;;
32535;SDS011;18974;50.838;4.636;2023-04-07T09:14:48;8.93;;;3.35;;
32535;SDS011;18974;50.838;4.636;2023-04-07T09:17:14;11.02;;;3.70;;
32535;SDS011;18974;50.838;4.636;2023-04-07T09:19:40;7.82;;;3.00;;
32535;SDS011;18974;50.838;4.636;2023-04-07T09:22:05;5.80;;;3.10;;
32535;SDS011;18974;50.838;4.636;2023-04-07T09:24:32;7.75;;;3.97;;
32535;SDS011;18974;50.838;4.636;2023-04-07T09:27:11;5.75;;;3.08;;
32535;SDS011;18974;50.838;4.636;2023-04-07T09:29:39;9.13;;;3.90;;
32535;SDS011;18974;50.838;4.636;2023-04-07T09:32:06;5.50;;;3.75;;
32535;SDS011;18974;50.838;4.636;2023-04-07T09:34:34;4.32;;;3.58;;
32535;SDS011;18974;50.838;4.636;2023-04-07T09:37:01;10.10;;;4.45;;
32535;SDS011;18974;50.838;4.636;2023-04-07T09:39:27;8.90;;;3.80;;
32535;SDS011;18974;50.838;4.636;2023-04-07T09:41:53;8.25;;;2.97;;
32535;SDS011;18974;50.838;4.636;2023-04-07T09:44:19;7.57;;;4.22;;
32535;SDS011;18974;50.838;4.636;2023-04-07T09:46:50;10.75;;;3.67;;
32535;SDS011;18974;50.838;4.636;2023-04-07T09:49:16;10.38;;;3.50;;
32535;SDS011;18974;50.838;4.636;2023-04-07T09:54:38;12.93;;;3.88;;
32535;SDS011;18974;50.838;4.636;2023-04-07T09:57:09;8.63;;;3.10;;
32535;SDS011;18974;50.838;4.636;2023-04-07T09:59:36;6.90;;;3.25;;
32535;SDS011;18974;50.838;4.636;2023-04-07T10:02:04;6.65;;;2.80;;
32535;SDS011;18974;50.838;4.636;2023-04-07T10:04:30;7.82;;;2.90;;
32535;SDS011;18974;50.838;4.636;2023-04-07T10:06:57;7.57;;;2.70;;
32535;SDS011;18974;50.838;4.636;2023-04-07T10:09:27;6.63;;;2.70;;
32535;SDS011;18974;50.838;4.636;2023-04-07T10:11:53;5.93;;;2.70;;
32535;SDS011;18974;50.838;4.636;2023-04-07T10:14:25;8.38;;;2.30;;
32535;SDS011;18974;50.838;4.636;2023-04-07T10:16:53;3.17;;;2.15;;
32535;SDS011;18974;50.838;4.636;2023-04-07T10:19:21;6.60;;;2.70;;
32535;SDS011;18974;50.838;4.636;2023-04-07T10:21:47;5.38;;;2.33;;
32535;SDS011;18974;50.838;4.636;2023-04-07T10:26:50;6.68;;;2.45;;
32535;SDS011;18974;50.838;4.636;2023-04-07T10:29:21;6.40;;;2.00;;
32535;SDS011;18974;50.838;4.636;2023-04-07T10:31:49;5.35;;;1.92;;
32535;SDS011;18974;50.838;4.636;2023-04-07T10:34:16;5.28;;;1.88;;
32535;SDS011;18974;50.838;4.636;2023-04-07T10:37:09;6.22;;;2.22;;
32535;SDS011;18974;50.838;4.636;2023-04-07T10:39:37;4.63;;;2.13;;
32535;SDS011;18974;50.838;4.636;2023-04-07T10:42:03;6.85;;;1.92;;
32535;SDS011;18974;50.838;4.636;2023-04-07T10:47:06;5.32;;;1.63;;
32535;SDS011;18974;50.838;4.636;2023-04-07T10:49:32;4.13;;;2.00;;
32535;SDS011;18974;50.838;4.636;2023-04-07T10:54:39;3.92;;;2.10;;
32535;SDS011;18974;50.838;4.636;2023-04-07T10:57:10;5.20;;;1.63;;
32535;SDS011;18974;50.838;4.636;2023-04-07T10:59:39;6.72;;;2.38;;
32535;SDS011;18974;50.838;4.636;2023-04-07T11:04:42;3.60;;;1.77;;
32535;SDS011;18974;50.838;4.636;2023-04-07T11:07:09;9.65;;;2.25;;
32535;SDS011;18974;50.838;4.636;2023-04-07T11:09:35;9.77;;;2.22;;
32535;SDS011;18974;50.838;4.636;2023-04-07T11:12:01;8.45;;;2.03;;
32535;SDS011;18974;50.838;4.636;2023-04-07T11:14:27;5.65;;;1.60;;
32535;SDS011;18974;50.838;4.636;2023-04-07T11:16:54;6.07;;;1.90;;
32535;SDS011;18974;50.838;4.636;2023-04-07T11:19:20;8.45;;;1.98;;
32535;SDS011;18974;50.838;4.636;2023-04-07T11:21:47;7.07;;;1.90;;
32535;SDS011;18974;50.838;4.636;2023-04-07T11:24:31;4.93;;;1.52;;
32535;SDS011;18974;50.838;4.636;2023-04-07T11:27:04;4.97;;;1.20;;
32535;SDS011;18974;50.838;4.636;2023-04-07T11:29:31;8.60;;;1.65;;
32535;SDS011;18974;50.838;4.636;2023-04-07T11:31:57;5.55;;;1.60;;
32535;SDS011;18974;50.838;4.636;2023-04-07T11:34:31;4.90;;;1.23;;
32535;SDS011;18974;50.838;4.636;2023-04-07T11:36:59;4.57;;;1.23;;
32535;SDS011;18974;50.838;4.636;2023-04-07T11:42:35;9.70;;;1.30;;
32535;SDS011;18974;50.838;4.636;2023-04-07T11:45:02;9.27;;;1.83;;
32535;SDS011;18974;50.838;4.636;2023-04-07T11:50:07;7.45;;;1.85;;
32535;SDS011;18974;50.838;4.636;2023-04-07T11:52:42;4.60;;;1.70;;
32535;SDS011;18974;50.838;4.636;2023-04-07T11:55:21;7.70;;;1.63;;
32535;SDS011;18974;50.838;4.636;2023-04-07T11:57:48;5.57;;;1.42;;
32535;SDS011;18974;50.838;4.636;2023-04-07T12:00:18;7.72;;;1.60;;
32535;SDS011;18974;50.838;4.636;2023-04-07T12:02:47;13.70;;;2.10;;
32535;SDS011;18974;50.838;4.636;2023-04-07T12:05:13;7.95;;;1.42;;
32535;SDS011;18974;50.838;4.636;2023-04-07T12:07:38;4.43;;;1.40;;
32535;SDS011;18974;50.838;4.636;2023-04-07T12:10:18;7.85;;;1.40;;
32535;SDS011;18974;50.838;4.636;2023-04-07T12:12:45;3.80;;;1.23;;
32535;SDS011;18974;50.838;4.636;2023-04-07T12:15:11;10.35;;;2.17;;
32535;SDS011;18974;50.838;4.636;2023-04-07T12:17:37;9.40;;;1.73;;
32535;SDS011;18974;50.838;4.636;2023-04-07T12:20:08;6.70;;;1.30;;
32535;SDS011;18974;50.838;4.636;2023-04-07T12:22:34;5.22;;;1.55;;
32535;SDS011;18974;50.838;4.636;2023-04-07T12:24:59;7.93;;;1.60;;
32535;SDS011;18974;50.838;4.636;2023-04-07T12:27:25;4.50;;;1.48;;
32535;SDS011;18974;50.838;4.636;2023-04-07T12:29:52;7.32;;;2.00;;
32535;SDS011;18974;50.838;4.636;2023-04-07T12:32:17;8.35;;;1.70;;
32535;SDS011;18974;50.838;4.636;2023-04-07T12:34:44;4.85;;;1.35;;
32535;SDS011;18974;50.838;4.636;2023-04-07T12:37:09;9.63;;;1.75;;
32535;SDS011;18974;50.838;4.636;2023-04-07T12:39:35;6.10;;;1.83;;
32535;SDS011;18974;50.838;4.636;2023-04-07T12:42:00;11.15;;;2.00;;
32535;SDS011;18974;50.838;4.636;2023-04-07T12:44:26;11.43;;;2.22;;
32535;SDS011;18974;50.838;4.636;2023-04-07T12:46:51;9.68;;;1.90;;
32535;SDS011;18974;50.838;4.636;2023-04-07T12:49:17;8.73;;;2.47;;
32535;SDS011;18974;50.838;4.636;2023-04-07T12:51:43;9.30;;;1.90;;
32535;SDS011;18974;50.838;4.636;2023-04-07T12:54:08;12.15;;;2.30;;
32535;SDS011;18974;50.838;4.636;2023-04-07T12:56:40;9.43;;;1.75;;
32535;SDS011;18974;50.838;4.636;2023-04-07T12:59:06;9.07;;;1.75;;
32535;SDS011;18974;50.838;4.636;2023-04-07T13:01:32;10.60;;;2.85;;
32535;SDS011;18974;50.838;4.636;2023-04-07T13:03:59;11.43;;;2.20;;
32535;SDS011;18974;50.838;4.636;2023-04-07T13:06:25;5.95;;;1.80;;
32535;SDS011;18974;50.838;4.636;2023-04-07T13:08:51;7.00;;;1.65;;
32535;SDS011;18974;50.838;4.636;2023-04-07T13:11:17;13.38;;;2.78;;
32535;SDS011;18974;50.838;4.636;2023-04-07T13:13:42;7.63;;;1.75;;
32535;SDS011;18974;50.838;4.636;2023-04-07T13:16:08;6.68;;;1.85;;
32535;SDS011;18974;50.838;4.636;2023-04-07T13:18:34;4.75;;;1.27;;
32535;SDS011;18974;50.838;4.636;2023-04-07T13:21:00;6.50;;;1.40;;
32535;SDS011;18974;50.838;4.636;2023-04-07T13:23:26;6.57;;;1.48;;
32535;SDS011;18974;50.838;4.636;2023-04-07T13:25:52;11.40;;;1.98;;
32535;SDS011;18974;50.838;4.636;2023-04-07T13:28:17;5.70;;;1.55;;
32535;SDS011;18974;50.838;4.636;2023-04-07T13:30:45;5.05;;;1.60;;
32535;SDS011;18974;50.838;4.636;2023-04-07T13:33:10;4.88;;;1.45;;
32535;SDS011;18974;50.838;4.636;2023-04-07T13:35:36;2.92;;;1.45;;
32535;SDS011;18974;50.838;4.636;2023-04-07T13:38:02;5.68;;;1.48;;
32535;SDS011;18974;50.838;4.636;2023-04-07T13:40:28;4.82;;;1.60;;
32535;SDS011;18974;50.838;4.636;2023-04-07T13:42:54;8.13;;;1.67;;
32535;SDS011;18974;50.838;4.636;2023-04-07T13:45:21;5.35;;;1.33;;
32535;SDS011;18974;50.838;4.636;2023-04-07T13:47:47;4.63;;;1.52;;
32535;SDS011;18974;50.838;4.636;2023-04-07T13:50:12;6.90;;;1.50;;
32535;SDS011;18974;50.838;4.636;2023-04-07T13:52:38;8.60;;;1.67;;
32535;SDS011;18974;50.838;4.636;2023-04-07T13:55:04;8.07;;;1.65;;
32535;SDS011;18974;50.838;4.636;2023-04-07T13:57:30;9.70;;;1.70;;
32535;SDS011;18974;50.838;4.636;2023-04-07T13:59:56;5.75;;;1.58;;
32535;SDS011;18974;50.838;4.636;2023-04-07T14:02:21;8.50;;;1.60;;
32535;SDS011;18974;50.838;4.636;2023-04-07T14:04:48;8.68;;;1.85;;
32535;SDS011;18974;50.838;4.636;2023-04-07T14:07:14;10.73;;;2.75;;
32535;SDS011;18974;50.838;4.636;2023-04-07T14:09:43;12.82;;;1.88;;
32535;SDS011;18974;50.838;4.636;2023-04-07T14:12:10;9.95;;;1.40;;
32535;SDS011;18974;50.838;4.636;2023-04-07T14:14:36;5.20;;;1.52;;
32535;SDS011;18974;50.838;4.636;2023-04-07T14:17:01;5.78;;;1.45;;
32535;SDS011;18974;50.838;4.636;2023-04-07T14:19:27;5.10;;;1.50;;
32535;SDS011;18974;50.838;4.636;2023-04-07T14:21:53;10.02;;;2.03;;
32535;SDS011;18974;50.838;4.636;2023-04-07T14:24:19;7.32;;;1.98;;
32535;SDS011;18974;50.838;4.636;2023-04-07T14:26:45;5.70;;;1.52;;
32535;SDS011;18974;50.838;4.636;2023-04-07T14:29:11;4.57;;;1.25;;
32535;SDS011;18974;50.838;4.636;2023-04-07T14:31:38;5.38;;;1.63;;
32535;SDS011;18974;50.838;4.636;2023-04-07T14:34:03;4.97;;;1.33;;
32535;SDS011;18974;50.838;4.636;2023-04-07T14:36:30;5.03;;;1.58;;
32535;SDS011;18974;50.838;4.636;2023-04-07T14:38:56;8.20;;;1.65;;
32535;SDS011;18974;50.838;4.636;2023-04-07T14:41:23;5.72;;;1.40;;
32535;SDS011;18974;50.838;4.636;2023-04-07T14:43:48;4.20;;;1.73;;
32535;SDS011;18974;50.838;4.636;2023-04-07T14:46:20;4.88;;;1.00;;
32535;SDS011;18974;50.838;4.636;2023-04-07T14:48:47;4.20;;;1.33;;
32535;SDS011;18974;50.838;4.636;2023-04-07T14:51:13;6.25;;;1.52;;
32535;SDS011;18974;50.838;4.636;2023-04-07T14:53:39;5.70;;;1.30;;
32535;SDS011;18974;50.838;4.636;2023-04-07T14:56:06;3.85;;;1.45;;
32535;SDS011;18974;50.838;4.636;2023-04-07T14:58:32;4.82;;;1.20;;